sensor_id;sensor_type;location;lat;lon;timestamp;pressure;altitude;pressure_sealevel;temperature;humidity
58843;BME280;44614;54.356;10.100;2023-03-23T00:01:12;99906.31;;;9.12;100.00
58843;BME280;44614;54.356;10.100;2023-03-23T00:03:45;99898.91;;;9.13;100.00
58843;BME280;44614;54.356;10.100;2023-03-23T00:06:11;99896.41;;;9.11;100.00
58843;BME280;44614;54.356;10.100;2023-03-23T00:08:44;99896.19;;;9.13;100.00
58843;BME280;44614;54.356;10.100;2023-03-23T00:11:16;99894.47;;;9.12;100.00
58843;BME280;44614;54.356;10.100;2023-03-23T00:13:43;99887.13;;;9.12;100.00
58843;BME280;44614;54.356;10.100;2023-03-23T00:16:09;99892.34;;;9.14;100.00
58843;BME280;44614;54.356;10.100;2023-03-23T00:18:46;99888.53;;;9.15;100.00
58843;BME280;44614;54.356;10.100;2023-03-23T00:21:12;99882.00;;;9.16;100.00
58843;BME280;44614;54.356;10.100;2023-03-23T00:23:37;99879.28;;;9.16;100.00
58843;BME280;44614;54.356;10.100;2023-03-23T00:26:04;99856.75;;;9.02;100.00
58843;BME280;44614;54.356;10.100;2023-03-23T00:28:29;99888.06;;;9.18;100.00
58843;BME280;44614;54.356;10.100;2023-03-23T00:31:02;99889.97;;;9.17;100.00
58843;BME280;44614;54.356;10.100;2023-03-23T00:33:30;99889.38;;;9.15;100.00
58843;BME280;44614;54.356;10.100;2023-03-23T00:36:03;99897.13;;;9.18;100.00
58843;BME280;44614;54.356;10.100;2023-03-23T00:38:30;99896.91;;;9.20;100.00
58843;BME280;44614;54.356;10.100;2023-03-23T00:40:55;99897.47;;;9.22;100.00
58843;BME280;44614;54.356;10.100;2023-03-23T00:43:23;99888.44;;;9.21;100.00
58843;BME280;44614;54.356;10.100;2023-03-23T00:45:50;99882.13;;;9.21;100.00
58843;BME280;44614;54.356;10.100;2023-03-23T00:48:22;99893.09;;;9.21;100.00
58843;BME280;44614;54.356;10.100;2023-03-23T00:50:49;99890.91;;;9.23;100.00
58843;BME280;44614;54.356;10.100;2023-03-23T00:53:15;99890.91;;;9.23;100.00
58843;BME280;44614;54.356;10.100;2023-03-23T00:55:42;99898.31;;;9.22;100.00
58843;BME280;44614;54.356;10.100;2023-03-23T00:58:08;99883.31;;;9.13;100.00
58843;BME280;44614;54.356;10.100;2023-03-23T01:00:34;99901.53;;;9.19;100.00
58843;BME280;44614;54.356;10.100;2023-03-23T01:02:59;99888.06;;;9.18;100.00
58843;BME280;44614;54.356;10.100;2023-03-23T01:05:25;99882.47;;;9.13;100.00
58843;BME280;44614;54.356;10.100;2023-03-23T01:07:58;99877.59;;;9.15;100.00
58843;BME280;44614;54.356;10.100;2023-03-23T01:10:24;99865.44;;;9.11;100.00
58843;BME280;44614;54.356;10.100;2023-03-23T01:12:52;99832.66;;;8.92;100.00
58843;BME280;44614;54.356;10.100;2023-03-23T01:15:18;99864.50;;;9.05;100.00
58843;BME280;44614;54.356;10.100;2023-03-23T01:17:44;99858.66;;;9.01;100.00
58843;BME280;44614;54.356;10.100;2023-03-23T01:20:11;99835.09;;;9.00;100.00
58843;BME280;44614;54.356;10.100;2023-03-23T01:22:39;99839.69;;;9.00;100.00
58843;BME280;44614;54.356;10.100;2023-03-23T01:25:06;99824.34;;;8.99;100.00
58843;BME280;44614;54.356;10.100;2023-03-23T01:27:32;99824.59;;;8.97;100.00
58843;BME280;44614;54.356;10.100;2023-03-23T01:29:57;99825.91;;;8.95;100.00
58843;BME280;44614;54.356;10.100;2023-03-23T01:32:22;99813.50;;;8.92;100.00
58843;BME280;44614;54.356;10.100;2023-03-23T01:34:48;99807.44;;;8.90;100.00
58843;BME280;44614;54.356;10.100;2023-03-23T01:37:13;99807.91;;;8.87;100.00
58843;BME280;44614;54.356;10.100;2023-03-23T01:39:41;99828.63;;;8.83;100.00
58843;BME280;44614;54.356;10.100;2023-03-23T01:42:08;99826.16;;;8.82;100.00
58843;BME280;44614;54.356;10.100;2023-03-23T01:46:59;99755.53;;;8.48;100.00
58843;BME280;44614;54.356;10.100;2023-03-23T01:49:29;99753.63;;;8.49;100.00
58843;BME280;44614;54.356;10.100;2023-03-23T01:52:08;99740.03;;;8.42;100.00
58843;BME280;44614;54.356;10.100;2023-03-23T01:54:36;99764.47;;;8.56;100.00
58843;BME280;44614;54.356;10.100;2023-03-23T01:57:04;99792.19;;;8.71;100.00
58843;BME280;44614;54.356;10.100;2023-03-23T01:59:32;99787.44;;;8.66;100.00
58843;BME280;44614;54.356;10.100;2023-03-23T02:01:58;99790.75;;;8.68;100.00
58843;BME280;44614;54.356;10.100;2023-03-23T02:04:26;99750.53;;;8.45;100.00
58843;BME280;44614;54.356;10.100;2023-03-23T02:06:52;99773.41;;;8.63;100.00
58843;BME280;44614;54.356;10.100;2023-03-23T02:09:20;99773.75;;;8.66;100.00
58843;BME280;44614;54.356;10.100;2023-03-23T02:11:46;99775.63;;;8.66;100.00
58843;BME280;44614;54.356;10.100;2023-03-23T02:14:13;99767.78;;;8.58;100.00
58843;BME280;44614;54.356;10.100;2023-03-23T02:31:09;99774.94;;;8.59;100.00
58843;BME280;44614;54.356;10.100;2023-03-23T02:34:36;99774.06;;;8.58;100.00
58843;BME280;44614;54.356;10.100;2023-03-23T02:37:01;99774.31;;;8.57;100.00
58843;BME280;44614;54.356;10.100;2023-03-23T02:39:52;99775.41;;;8.56;100.00
58843;BME280;44614;54.356;10.100;2023-03-23T02:42:26;99769.94;;;8.56;100.00
58843;BME280;44614;54.356;10.100;2023-03-23T02:44:54;99746.25;;;8.49;100.00
58843;BME280;44614;54.356;10.100;2023-03-23T02:47:24;99764.69;;;8.54;100.00
58843;BME280;44614;54.356;10.100;2023-03-23T02:49:53;99763.84;;;8.53;100.00
58843;BME280;44614;54.356;10.100;2023-03-23T02:52:23;99763.84;;;8.53;100.00
58843;BME280;44614;54.356;10.100;2023-03-23T02:54:51;99755.88;;;8.52;100.00
58843;BME280;44614;54.356;10.100;2023-03-23T02:57:19;99746.84;;;8.51;100.00
58843;BME280;44614;54.356;10.100;2023-03-23T02:59:45;99755.88;;;8.52;100.00
58843;BME280;44614;54.356;10.100;2023-03-23T03:02:30;99738.84;;;8.50;100.00
58843;BME280;44614;54.356;10.100;2023-03-23T03:05:28;99735.28;;;8.49;100.00
58843;BME280;44614;54.356;10.100;2023-03-23T03:08:19;99744.34;;;8.50;100.00
58843;BME280;44614;54.356;10.100;2023-03-23T03:11:08;99738.03;;;8.49;100.00
58843;BME280;44614;54.356;10.100;2023-03-23T03:21:28;99707.56;;;8.46;100.00
58843;BME280;44614;54.356;10.100;2023-03-23T03:23:56;99718.50;;;8.46;100.00
58843;BME280;44614;54.356;10.100;2023-03-23T03:26:24;99736.84;;;8.45;100.00
58843;BME280;44614;54.356;10.100;2023-03-23T03:28:51;99756.00;;;8.45;100.00
58843;BME280;44614;54.356;10.100;2023-03-23T03:31:21;99773.69;;;8.43;100.00
58843;BME280;44614;54.356;10.100;2023-03-23T03:33:49;99781.53;;;8.39;100.00
58843;BME280;44614;54.356;10.100;2023-03-23T03:36:18;99778.22;;;8.37;100.00
58843;BME280;44614;54.356;10.100;2023-03-23T03:38:48;99753.31;;;8.27;100.00
58843;BME280;44614;54.356;10.100;2023-03-23T03:41:14;99730.94;;;8.18;100.00
58843;BME280;44614;54.356;10.100;2023-03-23T03:43:39;99756.66;;;8.29;100.00
58843;BME280;44614;54.356;10.100;2023-03-23T03:46:05;99756.66;;;8.29;100.00
58843;BME280;44614;54.356;10.100;2023-03-23T03:48:30;99730.47;;;8.21;100.00
58843;BME280;44614;54.356;10.100;2023-03-23T03:50:55;99742.81;;;8.24;100.00
58843;BME280;44614;54.356;10.100;2023-03-23T03:53:22;99749.38;;;8.23;100.00
58843;BME280;44614;54.356;10.100;2023-03-23T03:55:48;99742.25;;;8.22;100.00
58843;BME280;44614;54.356;10.100;2023-03-23T03:58:15;99706.84;;;7.97;100.00
58843;BME280;44614;54.356;10.100;2023-03-23T04:00:41;99705.19;;;7.96;100.00
58843;BME280;44614;54.356;10.100;2023-03-23T04:03:07;99730.94;;;8.18;100.00
58843;BME280;44614;54.356;10.100;2023-03-23T04:05:32;99639.06;;;7.64;100.00
58843;BME280;44614;54.356;10.100;2023-03-23T04:07:58;99720.72;;;8.14;100.00
58843;BME280;44614;54.356;10.100;2023-03-23T04:10:27;99718.44;;;8.11;100.00
58843;BME280;44614;54.356;10.100;2023-03-23T04:12:54;99712.34;;;8.09;100.00
58843;BME280;44614;54.356;10.100;2023-03-23T04:15:21;99669.16;;;7.87;100.00
58843;BME280;44614;54.356;10.100;2023-03-23T04:17:46;99690.97;;;8.05;100.00
58843;BME280;44614;54.356;10.100;2023-03-23T04:20:12;99695.81;;;8.03;100.00
58843;BME280;44614;54.356;10.100;2023-03-23T04:22:42;99679.88;;;8.00;100.00
58843;BME280;44614;54.356;10.100;2023-03-23T04:25:10;99618.97;;;7.70;100.00
58843;BME280;44614;54.356;10.100;2023-03-23T04:27:38;99671.09;;;7.98;100.00
58843;BME280;44614;54.356;10.100;2023-03-23T04:30:04;99670.72;;;7.95;100.00
58843;BME280;44614;54.356;10.100;2023-03-23T04:32:31;99677.28;;;7.94;100.00
58843;BME280;44614;54.356;10.100;2023-03-23T04:34:58;99661.91;;;7.93;100.00
58843;BME280;44614;54.356;10.100;2023-03-23T04:37:26;99663.00;;;7.92;100.00
58843;BME280;44614;54.356;10.100;2023-03-23T04:39:56;99676.66;;;7.92;100.00
58843;BME280;44614;54.356;10.100;2023-03-23T04:42:32;99650.03;;;7.87;100.00
58843;BME280;44614;54.356;10.100;2023-03-23T04:44:58;99651.44;;;7.90;100.00
58843;BME280;44614;54.356;10.100;2023-03-23T04:47:26;99640.66;;;7.83;100.00
58843;BME280;44614;54.356;10.100;2023-03-23T04:49:57;99618.97;;;7.70;100.00
58843;BME280;44614;54.356;10.100;2023-03-23T04:52:24;99648.59;;;7.85;100.00
58843;BME280;44614;54.356;10.100;2023-03-23T04:54:50;99653.47;;;7.82;100.00
58843;BME280;44614;54.356;10.100;2023-03-23T04:57:15;99655.13;;;7.84;100.00
58843;BME280;44614;54.356;10.100;2023-03-23T04:59:42;99649.88;;;7.82;100.00
58843;BME280;44614;54.356;10.100;2023-03-23T05:02:07;99616.22;;;7.58;100.00
58843;BME280;44614;54.356;10.100;2023-03-23T05:04:32;99644.66;;;7.80;100.00
58843;BME280;44614;54.356;10.100;2023-03-23T05:06:58;99633.75;;;7.80;100.00
58843;BME280;44614;54.356;10.100;2023-03-23T05:09:24;99629.56;;;7.78;100.00
58843;BME280;44614;54.356;10.100;2023-03-23T05:11:49;99633.16;;;7.78;100.00
58843;BME280;44614;54.356;10.100;2023-03-23T05:14:15;99629.19;;;7.74;100.00
58843;BME280;44614;54.356;10.100;2023-03-23T05:16:40;99632.78;;;7.75;100.00
58843;BME280;44614;54.356;10.100;2023-03-23T05:19:05;99633.00;;;7.73;100.00
58843;BME280;44614;54.356;10.100;2023-03-23T05:21:32;99629.44;;;7.73;100.00
58843;BME280;44614;54.356;10.100;2023-03-23T05:23:57;99623.59;;;7.69;100.00
58843;BME280;44614;54.356;10.100;2023-03-23T05:26:26;99625.88;;;7.72;100.00
58843;BME280;44614;54.356;10.100;2023-03-23T05:28:54;99616.94;;;7.65;100.00
58843;BME280;44614;54.356;10.100;2023-03-23T05:31:21;99621.50;;;7.71;100.00
58843;BME280;44614;54.356;10.100;2023-03-23T05:33:46;99637.88;;;7.71;100.00
58843;BME280;44614;54.356;10.100;2023-03-23T05:36:11;99617.31;;;7.69;100.00
58843;BME280;44614;54.356;10.100;2023-03-23T05:38:39;99628.97;;;7.76;100.00
58843;BME280;44614;54.356;10.100;2023-03-23T05:41:07;99624.59;;;7.75;100.00
58843;BME280;44614;54.356;10.100;2023-03-23T05:43:33;99622.56;;;7.82;100.00
58843;BME280;44614;54.356;10.100;2023-03-23T05:45:58;99624.59;;;7.87;100.00
58843;BME280;44614;54.356;10.100;2023-03-23T05:48:24;99615.91;;;7.90;100.00
58843;BME280;44614;54.356;10.100;2023-03-23T05:50:49;99621.53;;;7.95;100.00
58843;BME280;44614;54.356;10.100;2023-03-23T05:53:15;99610.72;;;8.00;100.00
58843;BME280;44614;54.356;10.100;2023-03-23T05:55:41;99617.16;;;8.05;100.00
58843;BME280;44614;54.356;10.100;2023-03-23T05:58:06;99613.91;;;8.09;100.00
58843;BME280;44614;54.356;10.100;2023-03-23T06:00:32;99614.88;;;8.14;100.00
58843;BME280;44614;54.356;10.100;2023-03-23T06:02:57;99608.69;;;8.19;100.00
58843;BME280;44614;54.356;10.100;2023-03-23T06:05:23;99595.84;;;8.19;100.00
58843;BME280;44614;54.356;10.100;2023-03-23T06:07:51;99590.28;;;8.26;100.00
58843;BME280;44614;54.356;10.100;2023-03-23T06:10:17;99593.13;;;8.31;100.00
58843;BME280;44614;54.356;10.100;2023-03-23T06:12:42;99582.31;;;8.36;100.00
58843;BME280;44614;54.356;10.100;2023-03-23T06:15:09;99595.28;;;8.41;100.00
58843;BME280;44614;54.356;10.100;2023-03-23T06:17:36;99587.91;;;8.29;100.00
58843;BME280;44614;54.356;10.100;2023-03-23T06:20:04;99595.84;;;8.54;100.00
58843;BME280;44614;54.356;10.100;2023-03-23T06:22:33;99589.69;;;8.59;100.00
58843;BME280;44614;54.356;10.100;2023-03-23T06:24:59;99596.69;;;8.67;100.00
58843;BME280;44614;54.356;10.100;2023-03-23T06:27:25;99592.41;;;8.71;100.00
58843;BME280;44614;54.356;10.100;2023-03-23T06:29:50;99589.28;;;8.79;100.00
58843;BME280;44614;54.356;10.100;2023-03-23T06:32:16;99595.28;;;8.93;100.00
58843;BME280;44614;54.356;10.100;2023-03-23T06:34:41;99593.50;;;8.98;100.00
58843;BME280;44614;54.356;10.100;2023-03-23T06:37:09;99600.84;;;9.10;100.00
58843;BME280;44614;54.356;10.100;2023-03-23T06:39:35;99580.19;;;9.19;100.00
58843;BME280;44614;54.356;10.100;2023-03-23T06:42:03;99590.28;;;9.30;100.00
58843;BME280;44614;54.356;10.100;2023-03-23T06:44:28;99590.72;;;9.39;100.00
58843;BME280;44614;54.356;10.100;2023-03-23T06:46:54;99596.88;;;9.46;100.00
58843;BME280;44614;54.356;10.100;2023-03-23T06:49:20;99598.28;;;9.48;100.00
58843;BME280;44614;54.356;10.100;2023-03-23T06:51:45;99607.53;;;9.59;100.00
58843;BME280;44614;54.356;10.100;2023-03-23T06:54:10;99608.69;;;9.63;100.00
58843;BME280;44614;54.356;10.100;2023-03-23T06:56:36;99599.41;;;9.64;100.00
58843;BME280;44614;54.356;10.100;2023-03-23T06:59:02;99588.75;;;9.51;100.00
58843;BME280;44614;54.356;10.100;2023-03-23T07:01:28;99610.03;;;9.61;100.00
58843;BME280;44614;54.356;10.100;2023-03-23T07:03:54;99612.19;;;9.59;100.00
58843;BME280;44614;54.356;10.100;2023-03-23T07:06:20;99604.19;;;9.57;100.00
58843;BME280;44614;54.356;10.100;2023-03-23T07:08:46;99602.59;;;9.44;100.00
58843;BME280;44614;54.356;10.100;2023-03-23T07:11:12;99607.69;;;9.52;100.00
58843;BME280;44614;54.356;10.100;2023-03-23T07:13:38;99626.53;;;9.49;100.00
58843;BME280;44614;54.356;10.100;2023-03-23T07:16:06;99610.22;;;9.42;100.00
58843;BME280;44614;54.356;10.100;2023-03-23T07:18:32;99615.22;;;9.45;100.00
58843;BME280;44614;54.356;10.100;2023-03-23T07:20:58;99611.31;;;9.41;100.00
58843;BME280;44614;54.356;10.100;2023-03-23T07:23:23;99610.22;;;9.42;100.00
58843;BME280;44614;54.356;10.100;2023-03-23T07:25:49;99587.41;;;9.37;100.00
58843;BME280;44614;54.356;10.100;2023-03-23T07:28:14;99592.72;;;9.43;100.00
58843;BME280;44614;54.356;10.100;2023-03-23T07:30:40;99601.53;;;9.45;100.00
58843;BME280;44614;54.356;10.100;2023-03-23T07:33:07;99606.78;;;9.47;100.00
58843;BME280;44614;54.356;10.100;2023-03-23T07:35:33;99608.69;;;9.46;100.00
58843;BME280;44614;54.356;10.100;2023-03-23T07:37:59;99603.50;;;9.50;100.00
58843;BME280;44614;54.356;10.100;2023-03-23T07:40:25;99607.47;;;9.54;100.00
58843;BME280;44614;54.356;10.100;2023-03-23T07:42:55;99613.25;;;9.58;100.00
58843;BME280;44614;54.356;10.100;2023-03-23T07:45:21;99580.59;;;9.39;100.00
58843;BME280;44614;54.356;10.100;2023-03-23T07:47:47;99611.38;;;9.58;100.00
58843;BME280;44614;54.356;10.100;2023-03-23T07:50:13;99620.97;;;9.61;100.00
58843;BME280;44614;54.356;10.100;2023-03-23T07:52:39;99618.84;;;9.63;100.00
58843;BME280;44614;54.356;10.100;2023-03-23T07:55:05;99628.72;;;9.64;100.00
58843;BME280;44614;54.356;10.100;2023-03-23T07:57:31;99623.31;;;9.69;100.00
58843;BME280;44614;54.356;10.100;2023-03-23T07:59:58;99615.00;;;9.64;100.00
58843;BME280;44614;54.356;10.100;2023-03-23T08:02:24;99634.81;;;9.83;100.00
58843;BME280;44614;54.356;10.100;2023-03-23T08:04:50;99631.91;;;9.89;100.00
58843;BME280;44614;54.356;10.100;2023-03-23T08:07:17;99644.53;;;9.90;100.00
58843;BME280;44614;54.356;10.100;2023-03-23T08:09:44;99640.16;;;9.89;100.00
58843;BME280;44614;54.356;10.100;2023-03-23T08:12:09;99636.72;;;9.99;100.00
58843;BME280;44614;54.356;10.100;2023-03-23T08:14:35;99633.16;;;9.98;100.00
58843;BME280;44614;54.356;10.100;2023-03-23T08:17:00;99632.91;;;10.17;100.00
58843;BME280;44614;54.356;10.100;2023-03-23T08:19:26;99642.91;;;10.23;100.00
58843;BME280;44614;54.356;10.100;2023-03-23T08:21:51;99641.81;;;10.24;100.00
58843;BME280;44614;54.356;10.100;2023-03-23T08:24:17;99650.03;;;10.24;100.00
58843;BME280;44614;54.356;10.100;2023-03-23T08:26:44;99646.25;;;10.25;100.00
58843;BME280;44614;54.356;10.100;2023-03-23T08:29:09;99616.78;;;9.87;100.00
58843;BME280;44614;54.356;10.100;2023-03-23T08:31:34;99656.47;;;10.30;100.00
58843;BME280;44614;54.356;10.100;2023-03-23T08:34:01;99664.19;;;10.33;100.00
58843;BME280;44614;54.356;10.100;2023-03-23T08:36:27;99670.78;;;10.32;100.00
58843;BME280;44614;54.356;10.100;2023-03-23T08:38:53;99599.59;;;9.91;100.00
58843;BME280;44614;54.356;10.100;2023-03-23T08:41:19;99672.38;;;10.28;100.00
58843;BME280;44614;54.356;10.100;2023-03-23T08:43:44;99675.81;;;10.23;100.00
58843;BME280;44614;54.356;10.100;2023-03-23T08:46:10;99675.34;;;10.26;100.00
58843;BME280;44614;54.356;10.100;2023-03-23T08:48:37;99681.16;;;10.30;100.00
58843;BME280;44614;54.356;10.100;2023-03-23T08:51:04;99651.38;;;10.21;100.00
58843;BME280;44614;54.356;10.100;2023-03-23T08:53:31;99653.38;;;10.26;100.00
58843;BME280;44614;54.356;10.100;2023-03-23T08:56:02;99678.16;;;10.48;100.00
58843;BME280;44614;54.356;10.100;2023-03-23T08:58:28;99679.00;;;10.48;100.00
58843;BME280;44614;54.356;10.100;2023-03-23T09:00:54;99676.56;;;10.52;100.00
58843;BME280;44614;54.356;10.100;2023-03-23T09:03:19;99675.81;;;10.57;100.00
58843;BME280;44614;54.356;10.100;2023-03-23T09:05:45;99676.56;;;10.69;100.00
58843;BME280;44614;54.356;10.100;2023-03-23T09:08:11;99677.44;;;10.91;100.00
58843;BME280;44614;54.356;10.100;2023-03-23T09:10:37;99656.94;;;10.99;100.00
58843;BME280;44614;54.356;10.100;2023-03-23T09:13:04;99668.69;;;11.16;100.00
58843;BME280;44614;54.356;10.100;2023-03-23T09:15:30;99679.81;;;11.05;100.00
58843;BME280;44614;54.356;10.100;2023-03-23T09:17:56;99655.25;;;10.98;100.00
58843;BME280;44614;54.356;10.100;2023-03-23T09:20:24;99647.22;;;10.91;100.00
58843;BME280;44614;54.356;10.100;2023-03-23T09:22:52;99668.69;;;11.16;100.00
58843;BME280;44614;54.356;10.100;2023-03-23T09:25:20;99659.50;;;11.28;97.48
58843;BME280;44614;54.356;10.100;2023-03-23T09:27:49;99680.78;;;11.37;100.00
58843;BME280;44614;54.356;10.100;2023-03-23T09:30:19;99636.50;;;11.12;99.90
58843;BME280;44614;54.356;10.100;2023-03-23T09:32:45;99684.88;;;11.35;100.00
58843;BME280;44614;54.356;10.100;2023-03-23T09:35:14;99679.31;;;11.30;100.00
58843;BME280;44614;54.356;10.100;2023-03-23T09:37:42;99701.88;;;11.32;100.00
58843;BME280;44614;54.356;10.100;2023-03-23T09:40:23;99705.25;;;11.17;94.18
58843;BME280;44614;54.356;10.100;2023-03-23T09:43:06;99704.34;;;11.11;97.94
58843;BME280;44614;54.356;10.100;2023-03-23T09:54:18;99726.75;;;11.42;91.75
58843;BME280;44614;54.356;10.100;2023-03-23T09:56:45;99729.34;;;11.32;93.45
58843;BME280;44614;54.356;10.100;2023-03-23T10:02:13;99733.44;;;11.07;91.17
58843;BME280;44614;54.356;10.100;2023-03-23T10:04:50;99721.72;;;11.17;88.83
58843;BME280;44614;54.356;10.100;2023-03-23T10:07:22;99726.41;;;11.38;92.33
58843;BME280;44614;54.356;10.100;2023-03-23T10:09:53;99734.75;;;11.70;93.13
58843;BME280;44614;54.356;10.100;2023-03-23T10:12:36;99744.69;;;11.93;93.00
58843;BME280;44614;54.356;10.100;2023-03-23T10:15:17;99685.03;;;11.72;85.61
58843;BME280;44614;54.356;10.100;2023-03-23T10:18:06;99724.16;;;11.79;80.87
58843;BME280;44614;54.356;10.100;2023-03-23T10:26:19;99748.53;;;11.92;78.00
58843;BME280;44614;54.356;10.100;2023-03-23T10:28:54;99760.94;;;11.95;85.13
58843;BME280;44614;54.356;10.100;2023-03-23T10:31:24;99756.19;;;11.90;77.78
58843;BME280;44614;54.356;10.100;2023-03-23T10:33:55;99762.13;;;11.82;84.18
58843;BME280;44614;54.356;10.100;2023-03-23T10:36:27;99761.44;;;11.70;80.84
58843;BME280;44614;54.356;10.100;2023-03-23T10:39:06;99787.59;;;11.51;81.54
58843;BME280;44614;54.356;10.100;2023-03-23T10:41:36;99768.44;;;11.17;83.26
58843;BME280;44614;54.356;10.100;2023-03-23T10:44:09;99795.91;;;11.17;81.51
58843;BME280;44614;54.356;10.100;2023-03-23T10:49:23;99798.84;;;11.10;85.89
58843;BME280;44614;54.356;10.100;2023-03-23T10:57:25;99807.34;;;11.47;86.49
58843;BME280;44614;54.356;10.100;2023-03-23T11:00:01;99800.84;;;11.54;81.94
58843;BME280;44614;54.356;10.100;2023-03-23T11:02:31;99806.34;;;11.54;82.17
58843;BME280;44614;54.356;10.100;2023-03-23T11:05:00;99803.47;;;11.65;85.25
58843;BME280;44614;54.356;10.100;2023-03-23T11:07:29;99805.00;;;11.78;78.69
58843;BME280;44614;54.356;10.100;2023-03-23T11:09:57;99799.44;;;11.73;78.49
58843;BME280;44614;54.356;10.100;2023-03-23T11:12:33;99813.19;;;11.73;80.89
58843;BME280;44614;54.356;10.100;2023-03-23T11:15:09;99808.25;;;11.75;82.44
58843;BME280;44614;54.356;10.100;2023-03-23T11:17:40;99817.16;;;11.60;77.30
58843;BME280;44614;54.356;10.100;2023-03-23T11:20:11;99814.75;;;11.47;77.71
58843;BME280;44614;54.356;10.100;2023-03-23T11:22:37;99811.38;;;11.40;79.75
58843;BME280;44614;54.356;10.100;2023-03-23T11:25:05;99821.34;;;11.46;78.55
58843;BME280;44614;54.356;10.100;2023-03-23T11:27:32;99811.69;;;11.43;75.42
58843;BME280;44614;54.356;10.100;2023-03-23T11:30:10;99825.00;;;11.52;75.95
58843;BME280;44614;54.356;10.100;2023-03-23T11:32:36;99822.41;;;11.62;82.20
58843;BME280;44614;54.356;10.100;2023-03-23T11:35:11;99827.38;;;11.65;81.31
58843;BME280;44614;54.356;10.100;2023-03-23T11:37:42;99822.34;;;11.57;80.29
58843;BME280;44614;54.356;10.100;2023-03-23T11:42:42;99839.56;;;11.30;82.38
58843;BME280;44614;54.356;10.100;2023-03-23T11:45:20;99849.63;;;11.25;81.51
58843;BME280;44614;54.356;10.100;2023-03-23T11:50:20;99865.22;;;11.19;77.82
58843;BME280;44614;54.356;10.100;2023-03-23T11:53:15;99851.03;;;11.10;78.15
58843;BME280;44614;54.356;10.100;2023-03-23T11:58:15;99863.84;;;11.21;81.51
58843;BME280;44614;54.356;10.100;2023-03-23T12:00:50;99865.44;;;11.34;79.04
58843;BME280;44614;54.356;10.100;2023-03-23T12:11:52;99841.38;;;12.02;78.89
58843;BME280;44614;54.356;10.100;2023-03-23T12:17:08;99847.63;;;12.47;78.15
58843;BME280;44614;54.356;10.100;2023-03-23T12:20:05;99845.94;;;12.40;72.13
58843;BME280;44614;54.356;10.100;2023-03-23T12:22:51;99858.59;;;12.41;75.65
58843;BME280;44614;54.356;10.100;2023-03-23T12:44:42;99858.13;;;12.01;82.22
58843;BME280;44614;54.356;10.100;2023-03-23T12:49:56;99860.59;;;12.24;76.94
58843;BME280;44614;54.356;10.100;2023-03-23T12:52:37;99862.97;;;12.37;78.05
58843;BME280;44614;54.356;10.100;2023-03-23T12:55:23;99858.13;;;12.77;76.20
58843;BME280;44614;54.356;10.100;2023-03-23T12:57:59;99861.94;;;12.71;77.93
58843;BME280;44614;54.356;10.100;2023-03-23T13:00:46;99851.38;;;12.35;79.67
58843;BME280;44614;54.356;10.100;2023-03-23T13:05:46;99866.53;;;12.65;79.78
58843;BME280;44614;54.356;10.100;2023-03-23T13:08:25;99852.53;;;12.99;76.55
58843;BME280;44614;54.356;10.100;2023-03-23T13:10:58;99864.34;;;13.26;74.04
58843;BME280;44614;54.356;10.100;2023-03-23T13:13:41;99861.03;;;13.24;73.31
58843;BME280;44614;54.356;10.100;2023-03-23T13:16:23;99841.06;;;13.49;73.53
58843;BME280;44614;54.356;10.100;2023-03-23T13:24:30;99865.91;;;14.07;73.73
58843;BME280;44614;54.356;10.100;2023-03-23T13:26:58;99857.06;;;13.52;78.92
58843;BME280;44614;54.356;10.100;2023-03-23T13:29:26;99863.69;;;13.19;78.16
58843;BME280;44614;54.356;10.100;2023-03-23T13:32:11;99852.88;;;13.39;72.94
58843;BME280;44614;54.356;10.100;2023-03-23T13:34:39;99854.19;;;13.74;76.47
58843;BME280;44614;54.356;10.100;2023-03-23T13:37:10;99859.25;;;14.03;75.58
58843;BME280;44614;54.356;10.100;2023-03-23T13:49:58;99851.34;;;13.64;76.89
58843;BME280;44614;54.356;10.100;2023-03-23T14:05:44;99869.50;;;13.55;74.54
58843;BME280;44614;54.356;10.100;2023-03-23T14:08:20;99886.25;;;13.85;77.67
58843;BME280;44614;54.356;10.100;2023-03-23T14:10:53;99879.09;;;13.95;76.07
58843;BME280;44614;54.356;10.100;2023-03-23T14:13:50;99876.72;;;13.61;75.83
58843;BME280;44614;54.356;10.100;2023-03-23T14:16:24;99886.19;;;13.75;72.17
58843;BME280;44614;54.356;10.100;2023-03-23T14:19:00;99880.47;;;13.45;77.44
58843;BME280;44614;54.356;10.100;2023-03-23T14:21:35;99875.75;;;13.40;77.36
58843;BME280;44614;54.356;10.100;2023-03-23T14:24:10;99881.63;;;13.54;79.23
58843;BME280;44614;54.356;10.100;2023-03-23T14:26:37;99879.78;;;13.27;72.74
58843;BME280;44614;54.356;10.100;2023-03-23T14:29:04;99883.63;;;13.26;79.17
58843;BME280;44614;54.356;10.100;2023-03-23T14:31:30;99895.63;;;13.10;77.70
58843;BME280;44614;54.356;10.100;2023-03-23T14:34:00;99882.53;;;12.95;79.76
58843;BME280;44614;54.356;10.100;2023-03-23T14:36:29;99880.47;;;13.12;78.06
58843;BME280;44614;54.356;10.100;2023-03-23T14:39:02;99879.50;;;12.97;76.41
58843;BME280;44614;54.356;10.100;2023-03-23T14:41:29;99882.03;;;13.03;73.72
58843;BME280;44614;54.356;10.100;2023-03-23T14:43:56;99883.13;;;13.29;79.16
58843;BME280;44614;54.356;10.100;2023-03-23T14:46:24;99876.59;;;13.40;70.86
58843;BME280;44614;54.356;10.100;2023-03-23T14:48:49;99882.13;;;13.46;75.60
58843;BME280;44614;54.356;10.100;2023-03-23T14:51:19;99878.88;;;13.54;71.33
58843;BME280;44614;54.356;10.100;2023-03-23T14:53:46;99873.34;;;13.54;74.50
58843;BME280;44614;54.356;10.100;2023-03-23T14:56:15;99874.88;;;13.34;75.05
58843;BME280;44614;54.356;10.100;2023-03-23T14:58:45;99858.97;;;13.47;77.25
58843;BME280;44614;54.356;10.100;2023-03-23T15:01:18;99877.31;;;13.68;76.15
58843;BME280;44614;54.356;10.100;2023-03-23T15:04:07;99867.16;;;13.74;71.91